createdAt,value
2017-12-03T18:27:18.928Z,30.20
2017-12-03T18:29:23.244Z,30.50
2017-12-03T18:31:28.093Z,31.52
2017-12-03T18:33:31.537Z,32.50
2017-12-03T18:35:34.941Z,29.57
2017-12-03T18:37:39.869Z,31.12
2017-12-03T18:39:43.341Z,30.52
2017-12-03T18:41:47.516Z,28.48
2017-12-03T18:43:50.980Z,32.90
2017-12-03T18:45:54.684Z,30.85
2017-12-03T18:48:00.674Z,30.13
2017-12-03T18:50:05.306Z,31.60
2017-12-03T18:52:09.370Z,31.83
2017-12-03T18:54:13.680Z,31.12
2017-12-03T18:56:18.700Z,29.17
2017-12-03T18:58:25.070Z,30.20
2017-12-03T19:00:29.830Z,31.57
2017-12-03T19:02:33.715Z,30.60
2017-12-03T19:04:37.912Z,23.40
2017-12-03T19:06:42.498Z,26.35
2017-12-03T19:08:48.239Z,28.23
2017-12-03T19:10:52.969Z,28.17
2017-12-03T19:12:58.231Z,30.80
2017-12-03T19:15:02.621Z,30.23
2017-12-03T19:17:06.266Z,28.23
2017-12-03T19:19:11.528Z,29.45
2017-12-03T19:21:16.077Z,27.48
2017-12-03T19:23:19.681Z,28.23
2017-12-03T19:25:23.247Z,27.52
2017-12-03T19:27:27.053Z,30.35
2017-12-03T19:29:33.931Z,25.60
2017-12-03T19:31:38.284Z,26.37
2017-12-03T19:33:42.370Z,27.92
2017-12-03T19:35:47.888Z,29.58
2017-12-03T19:37:51.883Z,29.77
2017-12-03T19:39:55.689Z,26.90
2017-12-03T19:41:59.992Z,27.10
2017-12-03T19:44:03.595Z,28.15
2017-12-03T19:46:07.510Z,26.70
2017-12-03T19:48:11.867Z,28.45
2017-12-03T19:50:18.294Z,29.45
2017-12-03T19:52:22.215Z,27.83
2017-12-03T19:54:25.631Z,26.90
2017-12-03T19:56:29.624Z,26.97
2017-12-03T19:58:33.986Z,27.43
2017-12-03T20:00:37.591Z,27.17
2017-12-03T20:02:41.228Z,26.55
2017-12-03T20:04:45.500Z,30.10
2017-12-03T20:06:49.012Z,26.50
2017-12-03T20:08:53.507Z,26.02
2017-12-03T20:10:57.149Z,25.40
2017-12-03T20:13:01.143Z,26.60
2017-12-03T20:15:04.839Z,28.50
2017-12-03T20:17:08.321Z,27.77
2017-12-03T20:19:11.802Z,23.33
2017-12-03T20:21:15.353Z,25.70
2017-12-03T20:23:19.544Z,27.85
2017-12-03T20:25:24.216Z,28.90
2017-12-03T20:27:29.804Z,26.40
2017-12-03T20:29:34.498Z,27.87
2017-12-03T20:31:40.243Z,28.20
2017-12-03T20:33:44.623Z,24.40
2017-12-03T20:35:48.693Z,23.37
2017-12-03T20:37:52.240Z,26.90
2017-12-03T20:39:56.178Z,24.27
2017-12-03T20:42:04.262Z,25.57
2017-12-03T20:44:08.664Z,24.10
2017-12-03T20:46:12.635Z,24.10
2017-12-03T20:48:17.288Z,22.33
2017-12-03T20:50:21.681Z,24.57
2017-12-03T20:52:25.751Z,27.02
2017-12-03T20:54:30.592Z,23.40
2017-12-03T20:56:34.213Z,25.40
2017-12-03T20:58:38.386Z,23.40
2017-12-03T21:00:41.719Z,26.63
2017-12-03T21:02:45.112Z,23.60
2017-12-03T21:04:48.500Z,24.57
2017-12-03T21:06:51.853Z,24.77
2017-12-03T21:08:55.235Z,24.60
2017-12-03T21:10:58.627Z,23.67
2017-12-03T21:13:02.978Z,24.80
2017-12-03T21:15:07.155Z,22.02
2017-12-03T21:17:10.513Z,26.67
2017-12-03T21:19:14.664Z,27.17
2017-12-03T21:21:18.048Z,24.02
2017-12-03T21:23:21.394Z,23.83
2017-12-03T21:25:24.791Z,23.87
2017-12-03T21:27:28.163Z,26.27
2017-12-03T21:29:31.589Z,25.35
2017-12-03T21:31:35.058Z,22.85
2017-12-03T21:33:38.441Z,23.50
2017-12-03T21:35:42.623Z,24.07
2017-12-03T21:37:45.970Z,25.37
2017-12-03T21:39:49.736Z,23.93
2017-12-03T21:41:53.860Z,23.40
2017-12-03T21:43:57.243Z,21.73
2017-12-03T21:46:01.519Z,24.73
2017-12-03T21:48:04.858Z,24.57
2017-12-03T21:50:08.281Z,23.27
2017-12-03T21:52:11.611Z,21.37
2017-12-03T21:54:14.953Z,22.93
2017-12-03T21:56:19.093Z,23.13
2017-12-03T21:58:22.651Z,24.70
2017-12-03T22:00:26.071Z,23.57
2017-12-03T22:02:29.428Z,22.23
2017-12-03T22:04:33.554Z,24.63
2017-12-03T22:06:36.949Z,24.07
2017-12-03T22:08:40.343Z,22.07
2017-12-03T22:10:43.707Z,24.57
2017-12-03T22:12:47.038Z,23.55
2017-12-03T22:14:50.421Z,23.92
2017-12-03T22:16:54.553Z,24.23
2017-12-03T22:18:57.892Z,24.57
2017-12-03T22:21:01.273Z,23.17
2017-12-03T22:23:04.617Z,23.70
2017-12-03T22:25:08.718Z,24.43
2017-12-03T22:27:12.828Z,26.63
2017-12-03T22:29:16.922Z,24.47
2017-12-03T22:31:20.302Z,22.77
2017-12-03T22:33:23.838Z,24.67
2017-12-03T22:35:27.208Z,24.50
2017-12-03T22:37:30.629Z,23.80
2017-12-03T22:39:33.980Z,23.47
2017-12-03T22:41:37.307Z,25.67
2017-12-03T22:43:40.672Z,25.23
2017-12-03T22:45:44.642Z,22.93
2017-12-03T22:47:48.014Z,26.17
2017-12-03T22:49:51.345Z,22.67
2017-12-03T22:51:54.698Z,24.20
2017-12-03T22:53:58.075Z,24.87
2017-12-03T22:56:02.195Z,26.13
2017-12-03T22:58:05.558Z,25.67
2017-12-03T23:00:09.411Z,23.10
2017-12-03T23:02:12.855Z,24.60
2017-12-03T23:04:16.249Z,24.90
2017-12-03T23:06:19.655Z,24.77
2017-12-03T23:08:23.091Z,23.63
2017-12-03T23:10:26.399Z,23.60
2017-12-03T23:12:30.521Z,24.07
2017-12-03T23:14:33.916Z,24.00
2017-12-03T23:16:37.244Z,25.80
2017-12-03T23:18:40.591Z,24.33
2017-12-03T23:20:44.725Z,25.97
2017-12-03T23:22:48.098Z,23.65
2017-12-03T23:24:52.237Z,23.35
2017-12-03T23:26:55.598Z,24.30
2017-12-03T23:28:59.075Z,25.10
2017-12-03T23:31:03.203Z,25.23
2017-12-03T23:33:07.324Z,25.63
2017-12-03T23:35:10.700Z,24.53
2017-12-03T23:37:14.826Z,23.33
2017-12-03T23:39:18.949Z,26.00
2017-12-03T23:41:22.315Z,25.27
2017-12-03T23:43:25.678Z,25.37
2017-12-03T23:45:29.108Z,26.20
2017-12-03T23:47:32.456Z,25.00
2017-12-03T23:49:35.792Z,27.13
2017-12-03T23:51:39.177Z,25.10
2017-12-03T23:53:42.550Z,25.53
2017-12-03T23:55:46.686Z,21.43
2017-12-03T23:57:50.054Z,26.60
2017-12-03T23:59:54.274Z,26.67
